Time;durP1;ratioP1;P1;durP2;ratioP2;P2;SDS_P1;SDS_P2;PMS_P1;PMS_P2;Temp;Humidity;BMP_temperature;BMP_pressure;BME280_temperature;BME280_humidity;BME280_pressure;Samples;Min_cycle;Max_cycle;Signal;HPM_P1;HPM_P2
2022/05/15 00:03:11;;;;;;;11.35;3.40;;;17.60;74.20;;;;;;10536284;28;20039;-62
2022/05/15 00:08:12;;;;;;;12.65;3.15;;;17.60;74.30;;;;;;10535821;28;20135;-62
2022/05/15 00:13:13;;;;;;;12.23;3.97;;;17.50;74.20;;;;;;10546754;28;20126;-66
2022/05/15 00:18:14;;;;;;;11.50;3.03;;;17.50;74.20;;;;;;10549715;28;20035;-66
2022/05/15 00:23:17;;;;;;;12.65;3.20;;;17.50;74.30;;;;;;10549732;28;20384;-62
2022/05/15 00:28:18;;;;;;;13.30;3.45;;;17.40;74.80;;;;;;10549531;28;20040;-59
2022/05/15 00:33:19;;;;;;;9.27;3.45;;;17.40;74.20;;;;;;10549690;28;20480;-62
2022/05/15 00:38:20;;;;;;;11.02;3.30;;;17.30;74.20;;;;;;10549780;28;20035;-63
2022/05/15 00:43:42;;;;;;;9.70;3.10;;;17.30;74.20;;;;;;10531262;28;20557;-60
2022/05/15 00:48:44;;;;;;;8.77;2.78;;;17.30;74.10;;;;;;10549287;28;20500;-63
2022/05/15 00:53:48;;;;;;;15.85;4.45;;;17.20;74.20;;;;;;10548884;28;20040;-65
2022/05/15 00:58:54;;;;;;;9.65;3.30;;;17.20;74.20;;;;;;10549001;28;20039;-61
2022/05/15 01:03:55;;;;;;;9.60;3.38;;;17.20;74.20;;;;;;10548871;28;20028;-58
2022/05/15 01:08:56;;;;;;;8.45;4.05;;;17.10;74.10;;;;;;10548869;28;20471;-60
2022/05/15 01:13:57;;;;;;;7.38;3.13;;;17.10;74.20;;;;;;10548933;28;20081;-59
2022/05/15 01:18:59;;;;;;;10.55;3.38;;;17.10;74.20;;;;;;10548510;28;20043;-65
2022/05/15 01:24:02;;;;;;;7.53;3.08;;;17.10;74.20;;;;;;10543396;28;20583;-58
2022/05/15 01:29:05;;;;;;;10.30;2.83;;;17.00;74.20;;;;;;10541466;28;20055;-60
2022/05/15 01:34:10;;;;;;;14.35;3.40;;;17.00;74.20;;;;;;10541884;28;20028;-62
2022/05/15 01:39:11;;;;;;;13.00;3.95;;;16.90;74.20;;;;;;10541399;28;20469;-59
2022/05/15 01:44:12;;;;;;;11.25;3.60;;;16.90;74.20;;;;;;10541270;28;20032;-61
2022/05/15 01:49:12;;;;;;;10.77;3.17;;;16.90;74.30;;;;;;10540910;28;20044;-64
2022/05/15 01:54:13;;;;;;;11.07;3.25;;;16.80;74.20;;;;;;10540399;28;20485;-64
2022/05/15 01:59:14;;;;;;;12.00;3.10;;;16.80;74.30;;;;;;10540542;28;20036;-58
2022/05/15 02:04:15;;;;;;;12.93;2.95;;;16.80;74.30;;;;;;10540438;28;20043;-66
2022/05/15 02:09:16;;;;;;;8.40;3.03;;;16.70;74.30;;;;;;10539024;28;20554;-60
2022/05/15 02:14:16;;;;;;;8.52;3.15;;;16.70;74.30;;;;;;10540177;28;20066;-61
2022/05/15 02:19:17;;;;;;;10.88;2.80;;;16.70;74.30;;;;;;10539649;28;20036;-61
2022/05/15 02:24:18;;;;;;;10.15;2.88;;;16.70;74.30;;;;;;10539861;28;20028;-59
2022/05/15 02:29:19;;;;;;;10.05;2.95;;;16.60;74.30;;;;;;10539266;28;20492;-59
2022/05/15 02:34:20;;;;;;;8.25;2.72;;;16.60;74.30;;;;;;10536732;28;20040;-64
2022/05/15 02:39:20;;;;;;;11.43;3.05;;;16.50;74.30;;;;;;10521170;28;20044;-60
2022/05/15 02:44:21;;;;;;;9.13;3.55;;;16.50;74.30;;;;;;10538718;28;20384;-58
2022/05/15 02:54:42;;;;;;;11.43;2.92;;;16.50;74.40;;;;;;10537898;28;20078;-64
2022/05/15 02:59:42;;;;;;;15.05;3.10;;;16.40;74.40;;;;;;10538132;28;20488;-63
2022/05/15 03:04:43;;;;;;;10.55;3.08;;;16.40;74.40;;;;;;10537848;28;20094;-58
2022/05/15 03:09:46;;;;;;;5.85;2.55;;;16.40;74.40;;;;;;10537803;28;20082;-58
2022/05/15 03:14:46;;;;;;;11.15;3.08;;;16.30;74.40;;;;;;10519172;28;20051;-59
2022/05/15 03:19:47;;;;;;;14.05;3.28;;;16.30;74.40;;;;;;10537309;28;20042;-66
2022/05/15 03:24:48;;;;;;;9.77;2.65;;;16.30;74.40;;;;;;10537091;28;20043;-66
2022/05/15 03:29:48;;;;;;;11.13;3.35;;;16.20;74.40;;;;;;10536740;28;20400;-63
2022/05/15 03:34:49;;;;;;;7.85;2.80;;;16.20;74.40;;;;;;10536835;28;20056;-59
2022/05/15 03:39:50;;;;;;;8.68;3.08;;;16.20;74.40;;;;;;10536786;28;20050;-59
2022/05/15 03:44:51;;;;;;;13.32;2.95;;;16.20;74.40;;;;;;10536188;28;20036;-59
2022/05/15 03:49:53;;;;;;;10.45;3.22;;;16.10;74.40;;;;;;10536262;28;20047;-59
2022/05/15 03:54:54;;;;;;;10.10;3.00;;;16.10;74.40;;;;;;10536259;28;20056;-65
2022/05/15 03:59:54;;;;;;;9.77;3.10;;;16.10;74.50;;;;;;10536120;28;20044;-60
2022/05/15 04:04:55;;;;;;;11.77;2.97;;;16.00;74.40;;;;;;10535989;28;20035;-63
2022/05/15 04:09:55;;;;;;;9.27;2.97;;;16.10;74.50;;;;;;10535647;28;20048;-59
2022/05/15 04:14:56;;;;;;;11.13;3.28;;;16.00;74.40;;;;;;10535715;28;20039;-65
2022/05/15 04:20:01;;;;;;;5.65;2.35;;;16.00;74.40;;;;;;10535721;28;20109;-61
2022/05/15 04:25:03;;;;;;;5.82;2.10;;;16.00;74.40;;;;;;10535441;28;20042;-63
2022/05/15 04:30:05;;;;;;;7.72;2.65;;;16.00;74.40;;;;;;10535534;28;20514;-58
2022/05/15 04:35:06;;;;;;;9.00;3.20;;;15.90;74.40;;;;;;10535441;28;20028;-58
2022/05/15 04:40:09;;;;;;;9.52;2.85;;;15.90;74.40;;;;;;10534925;28;20032;-61
2022/05/15 04:45:10;;;;;;;8.18;3.45;;;15.90;74.40;;;;;;10534982;28;20419;-66
2022/05/15 04:50:11;;;;;;;8.30;2.80;;;15.90;74.40;;;;;;10535324;28;20098;-60
2022/05/15 04:55:13;;;;;;;10.25;2.95;;;15.90;74.40;;;;;;10534822;28;20106;-58
2022/05/15 05:00:17;;;;;;;7.25;2.92;;;15.90;74.40;;;;;;10541053;28;20109;-62
2022/05/15 05:05:18;;;;;;;7.38;2.28;;;15.80;74.40;;;;;;10542693;28;20035;-61
2022/05/15 05:10:20;;;;;;;10.60;3.38;;;15.90;74.40;;;;;;10542507;28;20488;-59
2022/05/15 05:15:20;;;;;;;9.10;3.72;;;15.80;74.40;;;;;;10542325;28;20036;-61
2022/05/15 05:20:22;;;;;;;10.75;3.03;;;15.80;74.40;;;;;;10542013;28;20131;-66
2022/05/15 05:25:22;;;;;;;8.27;2.60;;;15.80;74.40;;;;;;10541956;28;20388;-64
2022/05/15 05:30:25;;;;;;;6.95;2.70;;;15.80;74.40;;;;;;10541602;28;20056;-62
2022/05/15 05:35:27;;;;;;;7.93;2.58;;;15.90;74.40;;;;;;10541392;28;20078;-62
2022/05/15 05:40:28;;;;;;;8.00;2.72;;;15.80;75.00;;;;;;10541318;28;20394;-62
2022/05/15 05:45:29;;;;;;;9.00;2.70;;;15.80;74.30;;;;;;10541047;28;20040;-59
2022/05/15 05:50:30;;;;;;;9.02;2.60;;;15.80;74.40;;;;;;10540724;28;20044;-59
2022/05/15 05:55:30;;;;;;;10.93;2.85;;;15.80;74.30;;;;;;10540363;28;20052;-63
2022/05/15 06:00:34;;;;;;;11.60;2.50;;;15.90;74.40;;;;;;10540523;28;20400;-62
2022/05/15 06:05:35;;;;;;;4.57;2.30;;;15.80;74.30;;;;;;10540057;28;20036;-59
2022/05/15 06:10:36;;;;;;;9.68;3.05;;;15.90;74.40;;;;;;10539076;28;20044;-63
2022/05/15 06:15:37;;;;;;;7.13;2.38;;;15.80;74.30;;;;;;10539403;28;20054;-63
2022/05/15 06:20:38;;;;;;;6.75;2.80;;;15.90;74.40;;;;;;10539613;28;20039;-64
2022/05/15 06:25:39;;;;;;;7.35;3.10;;;15.90;74.40;;;;;;10539342;28;20575;-64
2022/05/15 06:30:39;;;;;;;9.68;2.65;;;15.90;74.40;;;;;;10539149;28;20040;-61
2022/05/15 06:35:40;;;;;;;8.80;2.53;;;15.90;74.40;;;;;;10539123;28;20042;-58
2022/05/15 06:40:41;;;;;;;7.03;2.28;;;15.90;74.40;;;;;;10538765;28;20043;-64
2022/05/15 06:45:41;;;;;;;6.15;2.20;;;15.90;74.30;;;;;;10538679;28;20131;-62
2022/05/15 06:50:42;;;;;;;6.75;2.75;;;16.00;74.40;;;;;;10538531;28;20044;-62
2022/05/15 07:01:02;;;;;;;7.00;2.17;;;16.00;74.30;;;;;;10537050;28;20486;-59
2022/05/15 07:06:03;;;;;;;6.78;2.20;;;16.00;74.20;;;;;;10537729;28;20124;-63
2022/05/15 07:11:04;;;;;;;6.22;2.25;;;16.00;74.20;;;;;;10537521;28;20488;-64
2022/05/15 07:16:05;;;;;;;5.30;2.40;;;16.10;74.20;;;;;;10537883;28;20140;-58
2022/05/15 07:21:06;;;;;;;8.05;2.20;;;16.10;74.20;;;;;;10536478;28;20085;-62
2022/05/15 07:26:07;;;;;;;4.05;1.75;;;16.20;74.20;;;;;;10536982;28;20178;-61
2022/05/15 07:31:07;;;;;;;6.53;2.25;;;16.20;74.20;;;;;;10536852;28;20393;-62
2022/05/15 07:36:09;;;;;;;11.75;2.08;;;16.20;74.20;;;;;;10536924;28;20174;-65
2022/05/15 07:41:10;;;;;;;5.10;1.88;;;16.20;74.10;;;;;;10536620;28;20036;-58
2022/05/15 07:46:11;;;;;;;6.75;2.03;;;16.30;74.10;;;;;;10535543;28;20476;-66
2022/05/15 07:51:12;;;;;;;5.97;1.95;;;16.30;74.00;;;;;;10536079;28;20075;-61
2022/05/15 07:56:13;;;;;;;5.00;2.40;;;16.40;74.00;;;;;;10531358;28;20085;-64
2022/05/15 08:01:14;;;;;;;6.72;2.25;;;16.40;74.00;;;;;;10536053;28;20136;-65
2022/05/15 08:11:36;;;;;;;7.15;2.00;;;16.50;74.00;;;;;;10535805;28;20093;-60
2022/05/15 08:16:38;;;;;;;5.15;2.15;;;16.60;74.00;;;;;;10535870;28;20028;-66
2022/05/15 08:26:58;;;;;;;5.80;1.83;;;16.60;74.00;;;;;;10535680;28;20028;-60
2022/05/15 08:31:59;;;;;;;6.18;1.63;;;16.70;74.10;;;;;;10537996;28;20427;-63
2022/05/15 08:37:03;;;;;;;4.47;2.42;;;16.70;74.10;;;;;;10544269;28;20040;-66
2022/05/15 08:42:20;;;;;;;5.90;1.70;;;16.80;74.10;;;;;;10543436;28;20036;-63
2022/05/15 08:47:40;;;;;;;5.18;1.77;;;16.80;74.10;;;;;;10543246;28;20037;-66
2022/05/15 08:53:05;;;;;;;6.75;1.77;;;16.90;74.10;;;;;;10537467;28;20481;-60
2022/05/15 08:58:22;;;;;;;5.70;1.80;;;17.00;74.30;;;;;;10540928;28;20438;-65
2022/05/15 09:03:25;;;;;;;5.18;2.05;;;17.10;74.00;;;;;;10542743;28;20089;-67
2022/05/15 09:09:03;;;;;;;7.57;1.85;;;17.10;73.90;;;;;;10542459;28;20044;-59
2022/05/15 09:14:14;;;;;;;4.88;2.03;;;17.20;74.10;;;;;;10542064;28;20036;-58
2022/05/15 09:19:15;;;;;;;6.22;1.92;;;17.20;74.00;;;;;;10542082;28;20032;-59
2022/05/15 09:24:47;;;;;;;5.85;1.88;;;17.30;73.90;;;;;;10541731;28;20431;-58
2022/05/15 09:29:57;;;;;;;4.50;1.80;;;17.30;74.00;;;;;;10541431;28;20055;-63
2022/05/15 09:35:00;;;;;;;6.72;1.77;;;17.40;73.90;;;;;;10541567;28;20063;-63
2022/05/15 09:40:09;;;;;;;3.63;1.63;;;17.50;73.80;;;;;;10541428;28;20031;-59
2022/05/15 09:45:17;;;;;;;7.78;2.20;;;17.50;73.80;;;;;;10540069;28;20028;-63
2022/05/15 09:50:56;;;;;;;5.40;1.90;;;17.60;73.80;;;;;;10540929;28;20144;-59
2022/05/15 09:56:13;;;;;;;7.63;1.92;;;17.60;73.80;;;;;;10540053;28;20048;-59
2022/05/15 10:01:21;;;;;;;6.40;1.98;;;17.70;73.70;;;;;;10540616;28;20094;-59
2022/05/15 10:06:25;;;;;;;6.93;2.22;;;17.70;73.60;;;;;;10540494;28;20040;-59
2022/05/15 10:11:26;;;;;;;4.57;1.85;;;17.80;73.60;;;;;;10539958;28;20459;-61
2022/05/15 10:16:31;;;;;;;5.22;2.10;;;17.90;74.10;;;;;;10539767;28;20103;-64
2022/05/15 10:21:40;;;;;;;9.38;2.15;;;17.90;73.40;;;;;;10539523;28;20503;-64
2022/05/15 10:27:04;;;;;;;8.82;3.05;;;18.00;73.40;;;;;;10539279;28;20385;-62
2022/05/15 10:32:35;;;;;;;7.70;2.67;;;18.10;73.40;;;;;;10539031;28;20039;-63
2022/05/15 10:38:08;;;;;;;7.55;2.30;;;18.20;73.30;;;;;;10538988;28;20074;-65
2022/05/15 10:43:29;;;;;;;9.57;2.35;;;18.20;73.20;;;;;;10538352;28;20130;-65
2022/05/15 10:48:47;;;;;;;6.63;2.60;;;18.30;73.20;;;;;;10538469;28;20052;-66
2022/05/15 10:59:44;;;;;;;6.10;2.35;;;18.50;72.80;;;;;;10537823;28;20063;-66
2022/05/15 11:05:07;;;;;;;7.22;2.22;;;18.50;72.70;;;;;;10538114;28;20043;-65
2022/05/15 11:10:32;;;;;;;4.78;2.25;;;18.60;72.50;;;;;;10537583;28;20044;-63
2022/05/15 11:16:01;;;;;;;6.72;2.25;;;18.70;72.40;;;;;;10537320;28;20024;-64
2022/05/15 11:21:14;;;;;;;9.70;1.98;;;18.70;72.20;;;;;;10537230;28;20507;-66
2022/05/15 11:26:22;;;;;;;5.82;2.40;;;18.80;72.10;;;;;;10536973;28;20028;-65
2022/05/15 11:31:36;;;;;;;6.65;2.05;;;18.90;71.90;;;;;;10536750;28;20086;-65
2022/05/15 11:36:43;;;;;;;8.00;2.35;;;19.00;71.70;;;;;;10536567;28;20035;-65
2022/05/15 11:41:44;;;;;;;7.70;2.58;;;19.10;71.80;;;;;;10536738;28;20122;-65
2022/05/15 11:46:44;;;;;;;6.70;2.17;;;19.20;71.80;;;;;;10536462;28;20111;-65
2022/05/15 11:52:06;;;;;;;6.45;2.28;;;19.20;71.60;;;;;;10517893;28;20063;-65
2022/05/15 11:57:29;;;;;;;5.93;2.33;;;19.30;71.50;;;;;;10533700;28;20044;-64
2022/05/15 12:02:30;;;;;;;6.75;2.03;;;19.40;71.40;;;;;;10535527;28;20404;-64
2022/05/15 12:07:50;;;;;;;9.57;2.00;;;19.40;71.40;;;;;;10535558;28;20040;-65
2022/05/15 12:13:27;;;;;;;6.43;2.35;;;19.50;71.40;;;;;;10535472;28;20113;-65
2022/05/15 12:18:36;;;;;;;7.90;2.22;;;19.60;71.20;;;;;;10535413;28;20479;-66
2022/05/15 12:24:27;;;;;;;5.53;2.42;;;19.70;71.10;;;;;;10535435;28;20032;-65
2022/05/15 12:29:22;;;;;;;7.65;2.63;;;19.80;71.10;;;;;;10534966;28;20044;-65
2022/05/15 12:34:37;;;;;;;5.97;2.13;;;19.80;71.10;;;;;;10535653;28;20380;-64
2022/05/15 12:39:45;;;;;;;6.43;2.65;;;19.90;71.20;;;;;;10535325;28;20412;-63
2022/05/15 12:44:46;;;;;;;;;;;19.90;71.20;;;;;;10535998;28;20051;-63
2022/05/15 12:49:47;;;;;;;5.63;1.98;;;20.00;71.20;;;;;;10535616;28;19946;-65
2022/05/15 12:54:59;;;;;;;6.47;2.28;;;20.10;71.20;;;;;;10532441;28;20044;-65
2022/05/15 13:00:11;;;;;;;7.47;2.40;;;20.20;71.20;;;;;;10534651;28;20477;-66
2022/05/15 13:05:23;;;;;;;6.53;2.20;;;20.20;71.00;;;;;;10534578;28;20500;-65
2022/05/15 13:10:25;;;;;;;5.28;2.35;;;20.30;71.00;;;;;;10534552;28;20044;-66
2022/05/15 13:15:30;;;;;;;7.13;2.50;;;20.40;70.80;;;;;;10534357;28;20464;-63
2022/05/15 13:20:35;;;;;;;7.25;2.28;;;20.50;70.80;;;;;;10539411;28;20468;-65
2022/05/15 13:25:38;;;;;;;8.45;2.15;;;20.60;70.70;;;;;;10541669;28;20036;-66
2022/05/15 13:30:41;;;;;;;9.32;2.00;;;20.80;70.80;;;;;;10541905;28;20040;-64
2022/05/15 13:35:47;;;;;;;4.28;1.80;;;20.80;70.50;;;;;;10541466;28;20036;-65
2022/05/15 13:46:43;;;;;;;7.78;2.40;;;21.10;70.60;;;;;;10540570;28;20472;-66
2022/05/15 13:51:46;;;;;;;5.68;1.98;;;21.20;71.10;;;;;;10540844;28;20060;-66
2022/05/15 13:57:08;;;;;;;8.07;2.50;;;21.30;70.40;;;;;;10515381;28;20382;-66
2022/05/15 14:02:19;;;;;;;6.70;2.08;;;21.40;70.50;;;;;;10498653;28;20055;-66
2022/05/15 14:07:35;;;;;;;5.75;2.28;;;21.40;70.50;;;;;;10498298;28;20148;-66
2022/05/15 14:12:59;;;;;;;7.30;2.10;;;21.50;70.60;;;;;;10498402;28;20055;-66
2022/05/15 14:18:06;;;;;;;8.15;2.30;;;21.60;70.70;;;;;;10498040;28;20032;-67
2022/05/15 14:23:07;;;;;;;5.45;1.70;;;21.70;70.40;;;;;;10497692;28;20033;-67
2022/05/15 14:28:10;;;;;;;8.15;2.63;;;21.80;70.20;;;;;;10497423;28;20070;-66
2022/05/15 14:33:11;;;;;;;7.32;2.85;;;22.00;69.90;;;;;;10497239;28;20068;-66
2022/05/15 14:38:12;;;;;;;3.53;1.65;;;22.10;70.40;;;;;;10497094;28;20405;-66
2022/05/15 14:43:13;;;;;;;5.95;2.20;;;22.30;69.80;;;;;;10496822;28;20032;-66
2022/05/15 14:48:17;;;;;;;6.28;2.53;;;22.40;69.60;;;;;;10496657;28;20122;-66
2022/05/15 14:53:21;;;;;;;7.03;2.03;;;22.50;69.40;;;;;;10496441;28;20394;-66
2022/05/15 14:58:22;;;;;;;7.55;2.38;;;22.60;69.40;;;;;;10532272;28;20048;-64
2022/05/15 15:03:23;;;;;;;4.15;2.10;;;22.70;69.20;;;;;;10537861;28;20509;-64
2022/05/15 15:08:25;;;;;;;6.53;1.90;;;22.80;69.20;;;;;;10537858;28;20052;-64
2022/05/15 15:13:26;;;;;;;6.63;2.03;;;22.90;69.10;;;;;;10537582;28;20028;-65
2022/05/15 15:18:27;;;;;;;8.88;2.17;;;23.00;68.80;;;;;;10537436;28;20047;-63
2022/05/15 15:23:28;;;;;;;4.05;1.60;;;23.10;68.70;;;;;;10537164;28;20028;-65
2022/05/15 15:28:28;;;;;;;5.32;2.38;;;23.20;68.70;;;;;;10536908;28;20046;-64
2022/05/15 15:33:29;;;;;;;5.70;2.28;;;23.20;68.70;;;;;;10537015;28;20463;-64
2022/05/15 15:38:30;;;;;;;8.85;3.13;;;23.30;68.70;;;;;;10536708;28;20044;-66
2022/05/15 15:43:36;;;;;;;3.97;2.40;;;23.40;68.60;;;;;;10536180;28;20032;-66
2022/05/15 15:48:37;;;;;;;5.40;2.33;;;23.40;68.50;;;;;;10536802;28;20071;-65
2022/05/15 15:53:38;;;;;;;4.20;1.83;;;23.50;68.50;;;;;;10535953;28;20070;-65
2022/05/15 15:58:39;;;;;;;4.43;2.53;;;23.60;68.70;;;;;;10535781;28;20052;-63
2022/05/15 16:03:39;;;;;;;6.07;1.98;;;23.60;68.80;;;;;;10535708;28;20119;-63
2022/05/15 16:08:41;;;;;;;5.25;2.20;;;23.50;69.00;;;;;;10535651;28;20036;-65
2022/05/15 16:13:41;;;;;;;4.07;2.25;;;23.40;69.30;;;;;;10535878;28;20056;-63
2022/05/15 16:18:43;;;;;;;4.05;2.08;;;23.30;69.80;;;;;;10535418;28;20554;-64
2022/05/15 16:23:43;;;;;;;4.22;1.90;;;23.20;70.00;;;;;;10535472;28;20116;-65
2022/05/15 16:28:45;;;;;;;7.65;2.25;;;23.20;70.20;;;;;;10535332;28;20405;-62
2022/05/15 16:33:45;;;;;;;6.53;2.10;;;23.10;70.20;;;;;;10535348;28;20049;-63
2022/05/15 16:38:46;;;;;;;2.67;1.70;;;23.10;70.50;;;;;;10535619;28;20358;-66
2022/05/15 16:43:47;;;;;;;3.42;1.55;;;23.00;70.70;;;;;;10535199;28;20032;-66
2022/05/15 16:48:48;;;;;;;4.90;2.00;;;23.00;70.70;;;;;;10535286;28;20119;-66
2022/05/15 16:53:48;;;;;;;4.35;2.00;;;22.90;70.70;;;;;;10537345;28;20032;-65
2022/05/15 16:58:49;;;;;;;4.20;1.90;;;22.90;70.80;;;;;;10542995;28;20048;-66
2022/05/15 17:03:50;;;;;;;4.05;2.00;;;22.90;71.60;;;;;;10542962;28;20103;-66
2022/05/15 17:08:51;;;;;;;4.47;1.83;;;22.80;70.90;;;;;;10542723;28;20538;-66
2022/05/15 17:13:51;;;;;;;4.30;1.88;;;22.80;71.60;;;;;;10542527;28;20126;-65
2022/05/15 17:18:52;;;;;;;6.05;1.77;;;22.80;71.70;;;;;;10542584;28;20157;-62
2022/05/15 17:23:53;;;;;;;3.05;1.80;;;22.70;71.00;;;;;;10542146;28;20135;-63
2022/05/15 17:34:13;;;;;;;4.60;1.90;;;22.70;71.20;;;;;;10541786;28;20086;-66
2022/05/15 17:39:15;;;;;;;4.90;1.83;;;22.60;71.20;;;;;;10541560;28;20036;-65
2022/05/15 17:44:15;;;;;;;5.75;1.83;;;22.50;71.30;;;;;;10541108;28;20036;-66
2022/05/15 17:49:16;;;;;;;4.30;1.95;;;22.50;71.40;;;;;;10540943;28;20044;-63
2022/05/15 17:54:17;;;;;;;3.63;1.50;;;22.50;71.50;;;;;;10539092;28;20032;-65
2022/05/15 17:59:18;;;;;;;4.57;1.80;;;22.40;71.40;;;;;;10538157;28;20056;-65
2022/05/15 18:04:19;;;;;;;3.60;1.60;;;22.40;71.40;;;;;;10540101;28;20028;-63
2022/05/15 18:09:20;;;;;;;3.92;1.85;;;22.30;71.40;;;;;;10540107;28;20051;-65
2022/05/15 18:14:21;;;;;;;3.58;1.88;;;22.30;71.50;;;;;;10540328;28;20043;-66
2022/05/15 18:19:22;;;;;;;3.35;1.60;;;22.20;71.50;;;;;;10539769;28;20079;-65
2022/05/15 18:24:23;;;;;;;3.67;1.70;;;22.20;71.80;;;;;;10539909;28;20063;-61
2022/05/15 18:29:25;;;;;;;4.13;1.73;;;22.10;71.80;;;;;;10539271;28;20072;-66
2022/05/15 18:34:26;;;;;;;4.43;1.88;;;22.00;71.90;;;;;;10539154;28;20036;-65
2022/05/15 18:39:26;;;;;;;3.47;1.73;;;22.00;72.00;;;;;;10539175;28;20059;-64
2022/05/15 18:44:28;;;;;;;5.57;1.98;;;21.90;72.10;;;;;;10538786;28;20103;-65
2022/05/15 18:49:29;;;;;;;3.30;1.98;;;21.90;72.20;;;;;;10538491;28;20044;-66
2022/05/15 18:59:51;;;;;;;5.03;1.85;;;21.80;72.30;;;;;;10538193;28;20543;-62
2022/05/15 19:04:54;;;;;;;3.08;1.50;;;21.70;72.40;;;;;;10538244;28;20093;-64
2022/05/15 19:09:55;;;;;;;3.38;1.60;;;21.60;72.50;;;;;;10537583;28;20043;-62
2022/05/15 19:14:55;;;;;;;4.40;1.98;;;21.60;72.60;;;;;;10537485;28;20059;-65
2022/05/15 19:19:56;;;;;;;4.15;2.15;;;21.50;72.70;;;;;;10536893;28;20385;-65
2022/05/15 19:24:58;;;;;;;4.28;1.73;;;21.50;72.80;;;;;;10537108;28;20424;-65
2022/05/15 19:29:59;;;;;;;4.63;1.65;;;21.40;72.80;;;;;;10536835;28;20135;-65
2022/05/15 19:35:01;;;;;;;4.20;1.73;;;21.40;72.80;;;;;;10536927;28;20459;-64
2022/05/15 19:40:02;;;;;;;3.42;1.60;;;21.30;72.80;;;;;;10536680;28;20032;-65
2022/05/15 19:45:07;;;;;;;2.47;1.48;;;21.30;72.90;;;;;;10536556;28;20032;-65
2022/05/15 19:50:08;;;;;;;3.80;1.60;;;21.20;72.80;;;;;;10536269;28;20153;-63
2022/05/15 19:55:10;;;;;;;4.40;1.60;;;21.20;72.90;;;;;;10536132;28;20060;-65
2022/05/15 20:00:14;;;;;;;5.65;1.60;;;21.10;73.00;;;;;;10536158;28;20105;-65
2022/05/15 20:15:53;;;;;;;4.03;1.52;;;21.00;73.20;;;;;;10536108;28;20032;-65
2022/05/15 20:20:54;;;;;;;4.32;1.45;;;20.90;73.20;;;;;;10535735;28;20504;-65
2022/05/15 20:25:55;;;;;;;3.78;1.75;;;20.90;73.20;;;;;;10535661;28;20036;-65
2022/05/15 20:30:55;;;;;;;2.70;1.58;;;20.80;73.10;;;;;;10543464;28;20051;-65
2022/05/15 20:35:56;;;;;;;3.40;1.30;;;20.80;73.20;;;;;;10544328;28;20040;-65
2022/05/15 20:40:57;;;;;;;3.20;1.63;;;20.70;73.10;;;;;;10543948;28;20024;-64
2022/05/15 20:45:58;;;;;;;2.63;1.40;;;20.70;73.20;;;;;;10543846;28;20484;-66
2022/05/15 20:50:59;;;;;;;4.82;1.70;;;20.70;73.10;;;;;;10543543;28;20051;-65
2022/05/15 20:55:59;;;;;;;2.50;1.48;;;20.60;73.00;;;;;;10543016;28;20044;-65
2022/05/15 21:01:03;;;;;;;3.95;2.00;;;20.60;73.10;;;;;;10543311;28;20535;-65
2022/05/15 21:06:04;;;;;;;3.95;1.80;;;20.50;72.90;;;;;;10543012;28;20035;-62
2022/05/15 21:11:05;;;;;;;4.97;1.75;;;20.50;72.90;;;;;;10542794;28;20517;-65
2022/05/15 21:16:07;;;;;;;5.70;1.80;;;20.50;72.90;;;;;;10542680;28;20063;-65
2022/05/15 21:21:08;;;;;;;4.60;1.63;;;20.40;72.90;;;;;;10542221;28;20396;-62
2022/05/15 21:26:09;;;;;;;6.00;1.70;;;20.40;72.90;;;;;;10542147;28;20028;-65
2022/05/15 21:31:10;;;;;;;3.97;1.92;;;20.30;72.90;;;;;;10541689;28;20166;-65
2022/05/15 21:36:11;;;;;;;3.22;1.65;;;20.30;73.50;;;;;;10541950;28;20599;-65
2022/05/15 21:46:31;;;;;;;6.60;1.88;;;20.20;73.00;;;;;;10541952;28;20036;-66
2022/05/15 21:51:31;;;;;;;4.60;1.77;;;20.20;73.00;;;;;;10541549;28;20487;-64
2022/05/15 21:56:32;;;;;;;3.95;1.80;;;20.10;73.00;;;;;;10538757;28;20079;-65
2022/05/15 22:01:33;;;;;;;3.65;1.90;;;20.10;73.10;;;;;;10540711;28;20441;-61
2022/05/15 22:06:34;;;;;;;4.57;1.80;;;20.00;73.10;;;;;;10540269;28;20036;-65
2022/05/15 22:11:35;;;;;;;4.38;1.80;;;20.00;73.80;;;;;;10540475;28;20051;-64
2022/05/15 22:16:36;;;;;;;4.85;2.20;;;20.00;73.20;;;;;;10540520;28;20036;-66
2022/05/15 22:21:37;;;;;;;3.28;1.75;;;19.90;73.20;;;;;;10539973;28;20036;-64
2022/05/15 22:26:39;;;;;;;3.42;2.00;;;19.90;73.30;;;;;;10539552;28;20575;-65
2022/05/15 22:31:40;;;;;;;4.18;1.77;;;19.90;73.40;;;;;;10539452;28;20051;-66
2022/05/15 22:36:40;;;;;;;5.30;1.98;;;19.80;73.40;;;;;;10539311;28;20058;-66
2022/05/15 22:41:41;;;;;;;4.78;1.90;;;19.70;73.40;;;;;;10539154;28;20047;-65
2022/05/15 22:46:42;;;;;;;4.93;1.85;;;19.70;73.40;;;;;;10538882;28;20036;-62
2022/05/15 22:51:43;;;;;;;2.75;1.90;;;19.70;74.10;;;;;;10538655;28;20381;-65
2022/05/15 22:56:43;;;;;;;3.15;1.67;;;19.70;73.60;;;;;;10538453;28;20080;-65
2022/05/15 23:01:44;;;;;;;5.63;2.00;;;19.60;73.60;;;;;;10538406;28;20052;-66
2022/05/15 23:12:04;;;;;;;3.28;1.92;;;19.50;73.60;;;;;;10537843;28;20412;-64
2022/05/15 23:17:05;;;;;;;5.03;2.20;;;19.50;73.60;;;;;;10537685;28;20046;-63
2022/05/15 23:22:06;;;;;;;4.15;1.98;;;19.50;73.70;;;;;;10537651;28;20128;-65
2022/05/15 23:27:06;;;;;;;3.53;1.98;;;19.40;73.70;;;;;;10537207;28;20028;-65
2022/05/15 23:32:10;;;;;;;5.90;2.22;;;19.40;73.70;;;;;;10536889;28;20040;-65
2022/05/15 23:37:11;;;;;;;4.65;2.03;;;19.30;73.70;;;;;;10537016;28;20097;-64
2022/05/15 23:42:12;;;;;;;4.13;2.20;;;19.30;73.80;;;;;;10536816;28;20542;-66
2022/05/15 23:47:13;;;;;;;4.90;1.88;;;19.30;73.80;;;;;;10536795;28;20054;-65
2022/05/15 23:52:15;;;;;;;4.97;1.90;;;19.20;73.80;;;;;;10536306;28;20047;-66
2022/05/15 23:57:16;;;;;;;4.50;2.20;;;19.20;73.90;;;;;;10536094;28;20055;-65
